^^

Nearby METAR Reports

 

EGHH - Bournemouth Airp, United Kingdom
Distance from station: S 10mi, 17km
Updated: 26/01/2020 18:20
Partly cloudy
Partly cloudy
 Wind from WSW
Wind: WSW 7 mph , 11 km/h
Temperature: 9°C
Wind Chill: 7°C
Dew Point: 8°C
Humidity: 94%
Barometer: 1006 hPa
Clouds: Partly cloudy
Visibility: 6 miles , 10 km
Cloud details: Partly cloudy 427 m
2020/01/26 18:20 EGHH 261820Z 24006KT 9999 SCT014 09/08 Q1006
EGDM - Boscombe Down, United Kingdom
Distance from station: N 16mi, 26km
Updated: 26/01/2020 17:50
Mostly cloudy
Mostly cloudy
 Wind from SW
Wind: SW 8 mph , 13 km/h
Temperature: 9°C
Wind Chill: 7°C
Dew Point: 8°C
Humidity: 94%
Barometer: 1005 hPa
Clouds: Mostly cloudy
Visibility: 6 miles , 10 km
Cloud details: Few Clouds 366 m
Partly cloudy 610 m
Mostly cloudy 1067 m
2020/01/26 17:50 EGDM 261750Z AUTO 23007KT 9999 FEW012/// SCT020/// BKN035/// 09/08 Q1005
 
EGVP - Middle Wallop, United Kingdom
Distance from station: NE 17mi, 27km
Updated: 26/01/2020 17:50
Partly cloudy
Partly cloudy
 Wind from SW
Wind: SW 9 mph , 15 km/h
Temperature: 9°C
Wind Chill: 7°C
Dew Point: 8°C
Humidity: 94%
Barometer: 1005 hPa
Clouds: Partly cloudy
Visibility: 6 miles , 10 km
Cloud details: Mostly cloudy 335 m
Partly cloudy 5791 m
2020/01/26 17:50 EGVP 261750Z AUTO 22008KT 9999 // BKN011/// SCT190/// 09/08 Q1005
EGHI - Southampton Wx C, United Kingdom
Distance from station: E 19mi, 31km
Updated: 26/01/2020 18:20
Mostly cloudy
Mostly cloudy
 Wind from SW
Wind: SW 8 mph , 13 km/h
Temperature: 10°C
Wind Chill: 8°C
Dew Point: 8°C
Humidity: 88%
Barometer: 1006 hPa
Clouds: Mostly cloudy
Visibility: 6 miles , 10 km
Cloud details: Mostly cloudy 457 m
2020/01/26 18:20 EGHI 261820Z 22007KT 200V260 9999 BKN015 10/08 Q1006
 
EGDY - Yeovilton (navy), United Kingdom
Distance from station: W 36mi, 58km
Updated: 26/01/2020 17:50
Mostly cloudy
Mostly cloudy
 Wind from S
Wind: S 3 mph , 6 km/h
Temperature: 8°C
Dew Point: 7°C
Humidity: 93%
Barometer: 1006 hPa
Clouds: Mostly cloudy
Visibility: 6 miles , 10 km
Cloud details: Partly cloudy 366 m
Partly cloudy 1829 m
Mostly cloudy 4877 m
2020/01/26 17:50 EGDY 261750Z AUTO 19003KT 9999 SCT012/// SCT060/// BKN160/// 08/07 Q1006 RERA
EGUO - Colerne Raf, United Kingdom
Distance from station: NNW 41mi, 66km
Updated: 14/02/2019 22:50
NOT Current
Clear
Clear
 Wind from ENE
Wind: ENE 1 mph , 2 km/h
Temperature: 1°C
Dew Point: 0°C
Humidity: 93%
Barometer: 1029 hPa
Summary: Clear
Visibility: greater than 7 miles , 10 km
2019/02/14 22:50 EGUO 142250Z 06001KT CAVOK 01/00 Q1029 BLU NOSIG
 
EGVO - Odiham Raf, United Kingdom
Distance from station: ENE 42mi, 68km
Updated: 26/01/2020 17:50
Mostly cloudy
Mostly cloudy
 Wind from SSW
Wind: SSW 18 mph , 30 km/h
Temperature: 9°C
Wind Chill: 5°C
Dew Point: 8°C
Humidity: 94%
Barometer: 1005 hPa
Clouds: Mostly cloudy
Visibility: 6 miles , 10 km
Cloud details: Mostly cloudy 244 m
Mostly cloudy 518 m
2020/01/26 17:50 EGVO 261750Z AUTO 21016KT 9999 BKN008/// BKN017/// 09/08 Q1005 RERA
EGGD - Bristol/Lulsgate, United Kingdom
Distance from station: NW 50mi, 81km
Updated: 26/01/2020 18:20
Partly cloudy
Partly cloudy
 Wind from WSW
Wind: WSW 6 mph , 9 km/h
Temperature: 7°C
Wind Chill: 6°C
Dew Point: 6°C
Humidity: 93%
Barometer: 1005 hPa
Clouds: Partly cloudy
Visibility: 6 miles , 10 km
Cloud details: Partly cloudy 457 m
2020/01/26 18:20 EGGD 261820Z 24005KT 9999 SCT015 07/06 Q1005